Bancroft, Iowa
Current Conditions -  °F | °C
As of 1:35 AM on Monday 22 Dec 2014 (Local Time) from KAXA Reporting Station
Haze Haze  
Wind Chill: 30°   Ceiling: 300
Heat Index: 39°   Visibility: 3mi
Dew Point: 39°   Wind: 17mph
Humidity: 100%   Direction: 160°SSE
Pressure: 29.65"   Gusts: 23mph
Location:  43.29°N, 94.22°W
Report Text: KAXA 220735Z AUTO 16015G20KT 3SM BR OVC003 04/04 A2965 RMK AO2
Loading
Personal Weather Stations






























Interactive Weather Map New forecast layout! Learn more

10-Day Weather Forecast

Advertisements
Track Severe Weather on mobile